Tenerife Sur, Canary Islands

06:45 PM WEST del 25 Luglio 2016 (GMT +0100)
Reina Sofia | | Change Station
Avvisi attivi: >

Alt. 253 ft 28.05 °N, 16.56 °W | Updated 15 minutes ago

Clear
Sereno
82 °F
Sembra 85 °F
N
7
Vento Variabile Vento da Variabile

Oggi
Massima -- | Minima -- °F
--% Possibilità di precip.
Ieri
Massima -- | Minima -- °F
Precip. -- in
Pressione 29.92 in
Visibilità -9999.0 miglia
Nuvole
Indice di calore 85 °F
Punto di rugiada 66 °F
Umidità 58%
Piovosità 0.00 in
Spessore del manto nevoso Non disponibile.
7:25 AM 9:00 PM
Gobba a levante, 64% visible
METAR GCTS 251730Z VRB06KT CAVOK 28/19 Q1013 WS R08 NOSIG
Pressione 29.92 in
Visibilità -9999.0 miglia
Nuvole
Indice di calore 85 °F
Punto di rugiada 66 °F
Umidità 58%
Piovosità 0.00 in
Spessore del manto nevoso Non disponibile.
7:25 AM 9:00 PM
Gobba a levante, 64% visible
METAR GCTS 251730Z VRB06KT CAVOK 28/19 Q1013 WS R08 NOSIG

10-Day Weather Forecast

No radar image for this location.
×

Almanac

Astronomia

Jul. 25, 2016 Alba Tramonto
Ora attuale
Crepuscolo civile
Crepuscolo nautico
Crepuscolo astronomico
Luna
Estensione della luce visibile
Lunghezza del giorno
Tomorrow will be .
, % of the Moon is Illuminated

Gli estremi di oggi

Massime Regione Minime Regione

Community

WunderPhotos

Upload Photos

1,927,364 foto caricate!

WunderBlog® & News

Nearby

Qualità dell'aria

  Qualità dell'aria Indice AQ Inquinante
Not available.

Profondità neve

Stazione Profondità Altitudine

Attività sismica

Città  Distanza Mag. Data & Ora
Minimo Magnitudo Mostrato è 2.5.

Temperature delle acque costiere

Località Temperatura

Stations

Stazioni meteo nelle vicinanze

Ubicazione della stazione Temp. Raffreddamento del vento Punto di rugiada Umidità Vento Precip. Alt. Aggiornato Tipo